Chandler Field
KAXN : rendu visible

Aérodrome :











RETROUVEZ-NOUS SUR...

 
LOGIN :

S'inscrire | Disclaimer

   EN    FR    IT 

 









Légende :    VFR   VFR Marginal   IFR   IFR Intensif   IFR Très Intensif
Visi : 
Plafond : 
>= 8 km
>= 3000ft
5 à 8 km
1000 à 3000 ft
1500m à 5 km
500 à 1000 ft
800 à 1500m
200 à 500 ft
< 800m
< 200 ft
Symboles :   Orages  Brouillard  Fortes neiges  Fortes précipitations  Vent > 20 kt






- Altitude de l'aérodrome : 1425 ft


KAXN - Chandler Field

DERNIER METAR :
  • 090153Z AUTO 13005KT 10SM CLR 24/23 A2995 RMK AO2 SLP134 T02440228

METARs EXPIRÉS :
  • 090053Z AUTO 15004KT 10SM BKN095 27/23 A2995 RMK AO2 SLP135 T02670228

TAF KAXN
Valide du 09 à 00h jusqu'au 10 à 00h UTC


082328Z 0900/0924 15006KT P6SM BKN050
TEMPO 0909/0912 22020G30KT 3SM -TSRA BKN025 OVC050CB
FM091200 15006KT P6SM BKN020
FM091400 16008KT P6SM OVC050
FIR KZMP / Amérique du Nord



MET'MAP, la Météo Aéronautique d'un coup d'oeil ! - Copyright ORBIFLY Décembre 2007 - Disclaimer

ORBIFLY MET'MAP TEAM :

Programmation & Développement : Alexandra Zaïnal
Sur une idée originale de : Baudouin d'Aumeries
Assistance à la programmation : Marc-Olivier Méhu
Soutien technique & logistique : Manuel Goepfert

Contact : metmap@orbifly.com




SOURCES & CREDITS :

   NOAA       Earth
Advisory